sensor_id;sensor_type;location;lat;lon;timestamp;temperature;humidity
24049;DHT22;12250;50.956;4.746;2022-09-01T00:01:25;18.60;86.90
24049;DHT22;12250;50.956;4.746;2022-09-01T00:03:53;18.60;86.40
24049;DHT22;12250;50.956;4.746;2022-09-01T00:06:21;18.60;85.90
24049;DHT22;12250;50.956;4.746;2022-09-01T00:08:53;18.60;85.90
24049;DHT22;12250;50.956;4.746;2022-09-01T00:11:20;18.50;86.00
24049;DHT22;12250;50.956;4.746;2022-09-01T00:13:47;18.50;85.90
24049;DHT22;12250;50.956;4.746;2022-09-01T00:16:13;18.40;86.20
24049;DHT22;12250;50.956;4.746;2022-09-01T00:18:42;18.40;86.30
24049;DHT22;12250;50.956;4.746;2022-09-01T00:21:12;18.40;86.40
24049;DHT22;12250;50.956;4.746;2022-09-01T00:23:38;18.30;86.50
24049;DHT22;12250;50.956;4.746;2022-09-01T00:26:04;18.20;86.40
24049;DHT22;12250;50.956;4.746;2022-09-01T00:28:34;18.10;86.60
24049;DHT22;12250;50.956;4.746;2022-09-01T00:31:00;18.10;86.80
24049;DHT22;12250;50.956;4.746;2022-09-01T00:33:26;18.10;86.80
24049;DHT22;12250;50.956;4.746;2022-09-01T00:35:52;18.00;86.80
24049;DHT22;12250;50.956;4.746;2022-09-01T00:38:18;18.00;86.70
24049;DHT22;12250;50.956;4.746;2022-09-01T00:40:44;17.90;86.80
24049;DHT22;12250;50.956;4.746;2022-09-01T00:43:21;17.90;86.90
24049;DHT22;12250;50.956;4.746;2022-09-01T00:45:48;17.80;88.20
24049;DHT22;12250;50.956;4.746;2022-09-01T00:48:17;17.70;87.70
24049;DHT22;12250;50.956;4.746;2022-09-01T00:50:46;17.60;87.70
24049;DHT22;12250;50.956;4.746;2022-09-01T00:53:12;17.50;88.40
24049;DHT22;12250;50.956;4.746;2022-09-01T00:55:38;17.50;88.70
24049;DHT22;12250;50.956;4.746;2022-09-01T00:58:06;17.50;88.70
24049;DHT22;12250;50.956;4.746;2022-09-01T01:00:35;17.50;89.40
24049;DHT22;12250;50.956;4.746;2022-09-01T01:03:10;17.40;88.60
24049;DHT22;12250;50.956;4.746;2022-09-01T01:05:42;17.40;88.80
24049;DHT22;12250;50.956;4.746;2022-09-01T01:08:11;17.30;88.80
24049;DHT22;12250;50.956;4.746;2022-09-01T01:10:39;17.30;88.90
24049;DHT22;12250;50.956;4.746;2022-09-01T01:13:12;17.20;89.20
24049;DHT22;12250;50.956;4.746;2022-09-01T01:15:38;17.10;89.50
24049;DHT22;12250;50.956;4.746;2022-09-01T01:18:10;17.10;90.00
24049;DHT22;12250;50.956;4.746;2022-09-01T01:20:36;17.00;90.20
24049;DHT22;12250;50.956;4.746;2022-09-01T01:23:24;16.90;90.30
24049;DHT22;12250;50.956;4.746;2022-09-01T01:25:57;16.80;90.50
24049;DHT22;12250;50.956;4.746;2022-09-01T01:28:28;16.70;90.70
24049;DHT22;12250;50.956;4.746;2022-09-01T01:31:06;16.70;90.90
24049;DHT22;12250;50.956;4.746;2022-09-01T01:33:39;16.60;91.10
24049;DHT22;12250;50.956;4.746;2022-09-01T01:36:08;16.50;91.20
24049;DHT22;12250;50.956;4.746;2022-09-01T01:38:38;16.50;91.30
24049;DHT22;12250;50.956;4.746;2022-09-01T01:41:11;16.50;91.70
24049;DHT22;12250;50.956;4.746;2022-09-01T01:43:38;16.40;91.90
24049;DHT22;12250;50.956;4.746;2022-09-01T01:46:06;16.40;92.10
24049;DHT22;12250;50.956;4.746;2022-09-01T01:48:33;16.40;92.20
24049;DHT22;12250;50.956;4.746;2022-09-01T01:51:02;16.30;92.30
24049;DHT22;12250;50.956;4.746;2022-09-01T01:53:29;16.20;92.60
24049;DHT22;12250;50.956;4.746;2022-09-01T01:55:55;16.20;92.70
24049;DHT22;12250;50.956;4.746;2022-09-01T01:58:22;16.20;92.80
24049;DHT22;12250;50.956;4.746;2022-09-01T02:00:50;16.20;92.80
24049;DHT22;12250;50.956;4.746;2022-09-01T02:03:19;16.20;92.90
24049;DHT22;12250;50.956;4.746;2022-09-01T02:05:48;16.10;92.90
24049;DHT22;12250;50.956;4.746;2022-09-01T02:08:15;16.00;93.40
24049;DHT22;12250;50.956;4.746;2022-09-01T02:10:48;16.00;93.20
24049;DHT22;12250;50.956;4.746;2022-09-01T02:13:16;16.00;93.10
24049;DHT22;12250;50.956;4.746;2022-09-01T02:15:46;16.00;93.10
24049;DHT22;12250;50.956;4.746;2022-09-01T02:18:17;15.90;93.20
24049;DHT22;12250;50.956;4.746;2022-09-01T02:20:45;15.80;93.50
24049;DHT22;12250;50.956;4.746;2022-09-01T02:23:12;15.80;94.10
24049;DHT22;12250;50.956;4.746;2022-09-01T02:25:42;15.80;93.80
24049;DHT22;12250;50.956;4.746;2022-09-01T02:28:10;15.80;94.00
24049;DHT22;12250;50.956;4.746;2022-09-01T02:30:44;15.80;94.10
24049;DHT22;12250;50.956;4.746;2022-09-01T02:33:11;15.80;94.20
24049;DHT22;12250;50.956;4.746;2022-09-01T02:35:43;15.90;94.30
24049;DHT22;12250;50.956;4.746;2022-09-01T02:38:10;16.00;94.10
24049;DHT22;12250;50.956;4.746;2022-09-01T02:40:41;16.10;94.10
24049;DHT22;12250;50.956;4.746;2022-09-01T02:43:12;16.20;94.00
24049;DHT22;12250;50.956;4.746;2022-09-01T02:45:39;16.30;94.00
24049;DHT22;12250;50.956;4.746;2022-09-01T02:48:09;16.30;93.90
24049;DHT22;12250;50.956;4.746;2022-09-01T02:50:36;16.40;93.80
24049;DHT22;12250;50.956;4.746;2022-09-01T02:53:02;16.40;93.60
24049;DHT22;12250;50.956;4.746;2022-09-01T02:55:31;16.40;93.60
24049;DHT22;12250;50.956;4.746;2022-09-01T02:57:57;16.40;93.60
24049;DHT22;12250;50.956;4.746;2022-09-01T03:00:24;16.40;93.60
24049;DHT22;12250;50.956;4.746;2022-09-01T03:03:04;16.40;93.60
24049;DHT22;12250;50.956;4.746;2022-09-01T03:05:31;16.30;93.60
24049;DHT22;12250;50.956;4.746;2022-09-01T03:08:03;16.30;93.60
24049;DHT22;12250;50.956;4.746;2022-09-01T03:10:33;16.10;93.70
24049;DHT22;12250;50.956;4.746;2022-09-01T03:13:02;16.00;93.80
24049;DHT22;12250;50.956;4.746;2022-09-01T03:15:28;16.00;94.00
24049;DHT22;12250;50.956;4.746;2022-09-01T03:17:55;15.90;94.20
24049;DHT22;12250;50.956;4.746;2022-09-01T03:20:22;15.90;94.30
24049;DHT22;12250;50.956;4.746;2022-09-01T03:22:48;15.80;94.40
24049;DHT22;12250;50.956;4.746;2022-09-01T03:25:17;15.70;94.50
24049;DHT22;12250;50.956;4.746;2022-09-01T03:27:44;15.60;94.70
24049;DHT22;12250;50.956;4.746;2022-09-01T03:30:10;15.60;94.80
24049;DHT22;12250;50.956;4.746;2022-09-01T03:32:36;15.50;94.90
24049;DHT22;12250;50.956;4.746;2022-09-01T03:35:02;15.50;95.20
24049;DHT22;12250;50.956;4.746;2022-09-01T03:37:28;15.50;95.50
24049;DHT22;12250;50.956;4.746;2022-09-01T03:39:53;15.40;95.80
24049;DHT22;12250;50.956;4.746;2022-09-01T03:42:19;15.40;95.90
24049;DHT22;12250;50.956;4.746;2022-09-01T03:44:50;15.30;96.00
24049;DHT22;12250;50.956;4.746;2022-09-01T03:47:18;15.30;96.10
24049;DHT22;12250;50.956;4.746;2022-09-01T03:49:46;15.30;96.20
24049;DHT22;12250;50.956;4.746;2022-09-01T03:52:13;15.20;96.30
24049;DHT22;12250;50.956;4.746;2022-09-01T03:54:40;15.20;96.50
24049;DHT22;12250;50.956;4.746;2022-09-01T03:57:06;15.10;96.70
24049;DHT22;12250;50.956;4.746;2022-09-01T03:59:34;15.00;96.90
24049;DHT22;12250;50.956;4.746;2022-09-01T04:01:59;15.00;97.10
24049;DHT22;12250;50.956;4.746;2022-09-01T04:04:27;15.00;97.20
24049;DHT22;12250;50.956;4.746;2022-09-01T04:06:56;14.90;97.30
24049;DHT22;12250;50.956;4.746;2022-09-01T04:09:21;14.80;97.60
24049;DHT22;12250;50.956;4.746;2022-09-01T04:11:47;14.70;97.80
24049;DHT22;12250;50.956;4.746;2022-09-01T04:14:13;14.60;98.10
24049;DHT22;12250;50.956;4.746;2022-09-01T04:16:39;14.60;98.40
24049;DHT22;12250;50.956;4.746;2022-09-01T04:19:24;14.50;98.60
24049;DHT22;12250;50.956;4.746;2022-09-01T04:21:56;14.50;98.90
24049;DHT22;12250;50.956;4.746;2022-09-01T04:24:25;14.40;99.40
24049;DHT22;12250;50.956;4.746;2022-09-01T04:26:53;14.40;99.70
24049;DHT22;12250;50.956;4.746;2022-09-01T04:29:21;14.30;99.90
24049;DHT22;12250;50.956;4.746;2022-09-01T04:31:59;14.30;99.90
24049;DHT22;12250;50.956;4.746;2022-09-01T04:34:28;14.30;99.90
24049;DHT22;12250;50.956;4.746;2022-09-01T04:37:02;14.20;99.90
24049;DHT22;12250;50.956;4.746;2022-09-01T04:39:31;14.10;99.90
24049;DHT22;12250;50.956;4.746;2022-09-01T04:41:57;14.10;99.90
24049;DHT22;12250;50.956;4.746;2022-09-01T04:44:22;14.10;99.90
24049;DHT22;12250;50.956;4.746;2022-09-01T04:46:50;14.00;99.90
24049;DHT22;12250;50.956;4.746;2022-09-01T04:49:17;14.00;99.90
24049;DHT22;12250;50.956;4.746;2022-09-01T04:51:49;14.00;99.90
24049;DHT22;12250;50.956;4.746;2022-09-01T04:54:15;14.00;99.90
24049;DHT22;12250;50.956;4.746;2022-09-01T04:56:43;14.00;99.90
24049;DHT22;12250;50.956;4.746;2022-09-01T04:59:10;14.00;99.90
24049;DHT22;12250;50.956;4.746;2022-09-01T05:01:38;14.00;99.90
24049;DHT22;12250;50.956;4.746;2022-09-01T05:04:12;14.00;99.90
24049;DHT22;12250;50.956;4.746;2022-09-01T05:06:46;14.00;99.90
24049;DHT22;12250;50.956;4.746;2022-09-01T05:09:16;14.00;99.90
24049;DHT22;12250;50.956;4.746;2022-09-01T05:11:42;14.00;99.90
24049;DHT22;12250;50.956;4.746;2022-09-01T05:14:11;14.00;99.90
24049;DHT22;12250;50.956;4.746;2022-09-01T05:16:37;14.00;99.90
24049;DHT22;12250;50.956;4.746;2022-09-01T05:19:06;14.00;99.90
24049;DHT22;12250;50.956;4.746;2022-09-01T05:21:32;14.00;99.90
24049;DHT22;12250;50.956;4.746;2022-09-01T05:23:58;14.00;99.90
24049;DHT22;12250;50.956;4.746;2022-09-01T05:26:31;14.00;99.90
24049;DHT22;12250;50.956;4.746;2022-09-01T05:29:03;14.10;99.90
24049;DHT22;12250;50.956;4.746;2022-09-01T05:31:35;14.10;99.90
24049;DHT22;12250;50.956;4.746;2022-09-01T05:34:03;14.20;99.90
24049;DHT22;12250;50.956;4.746;2022-09-01T05:36:29;14.20;99.90
24049;DHT22;12250;50.956;4.746;2022-09-01T05:38:58;14.30;99.90
24049;DHT22;12250;50.956;4.746;2022-09-01T05:41:25;14.30;99.90
24049;DHT22;12250;50.956;4.746;2022-09-01T05:43:51;14.30;99.90
24049;DHT22;12250;50.956;4.746;2022-09-01T05:46:22;14.30;99.90
24049;DHT22;12250;50.956;4.746;2022-09-01T05:48:50;14.40;99.90
24049;DHT22;12250;50.956;4.746;2022-09-01T05:51:19;14.50;99.90
24049;DHT22;12250;50.956;4.746;2022-09-01T05:53:50;14.50;99.90
24049;DHT22;12250;50.956;4.746;2022-09-01T05:56:18;14.50;99.90
24049;DHT22;12250;50.956;4.746;2022-09-01T05:58:45;14.60;99.90
24049;DHT22;12250;50.956;4.746;2022-09-01T06:01:23;14.60;99.90
24049;DHT22;12250;50.956;4.746;2022-09-01T06:03:50;14.60;99.90
24049;DHT22;12250;50.956;4.746;2022-09-01T06:06:24;14.70;99.90
24049;DHT22;12250;50.956;4.746;2022-09-01T06:08:51;14.80;99.90
24049;DHT22;12250;50.956;4.746;2022-09-01T06:11:18;14.90;99.90
24049;DHT22;12250;50.956;4.746;2022-09-01T06:13:44;14.90;99.90
24049;DHT22;12250;50.956;4.746;2022-09-01T06:16:12;15.00;99.90
24049;DHT22;12250;50.956;4.746;2022-09-01T06:18:38;15.10;99.90
24049;DHT22;12250;50.956;4.746;2022-09-01T06:21:05;15.10;99.90
24049;DHT22;12250;50.956;4.746;2022-09-01T06:23:40;15.20;99.90
24049;DHT22;12250;50.956;4.746;2022-09-01T06:26:18;15.20;99.90
24049;DHT22;12250;50.956;4.746;2022-09-01T06:28:44;15.40;99.90
24049;DHT22;12250;50.956;4.746;2022-09-01T06:31:11;15.40;99.90
24049;DHT22;12250;50.956;4.746;2022-09-01T06:33:38;15.50;99.90
24049;DHT22;12250;50.956;4.746;2022-09-01T06:36:04;15.60;99.90
24049;DHT22;12250;50.956;4.746;2022-09-01T06:38:30;15.60;99.90
24049;DHT22;12250;50.956;4.746;2022-09-01T06:41:04;15.70;99.90
24049;DHT22;12250;50.956;4.746;2022-09-01T06:43:34;15.80;99.90
24049;DHT22;12250;50.956;4.746;2022-09-01T06:46:01;15.90;99.90
24049;DHT22;12250;50.956;4.746;2022-09-01T06:48:27;16.10;99.90
24049;DHT22;12250;50.956;4.746;2022-09-01T06:50:58;16.10;99.90
24049;DHT22;12250;50.956;4.746;2022-09-01T06:53:28;16.30;99.90
24049;DHT22;12250;50.956;4.746;2022-09-01T06:55:55;16.40;99.90
24049;DHT22;12250;50.956;4.746;2022-09-01T06:58:21;16.50;99.90
24049;DHT22;12250;50.956;4.746;2022-09-01T07:00:46;16.60;99.90
24049;DHT22;12250;50.956;4.746;2022-09-01T07:03:14;16.70;99.90
24049;DHT22;12250;50.956;4.746;2022-09-01T07:05:43;16.90;99.90
24049;DHT22;12250;50.956;4.746;2022-09-01T07:08:12;17.00;99.90
24049;DHT22;12250;50.956;4.746;2022-09-01T07:10:45;17.20;99.90
24049;DHT22;12250;50.956;4.746;2022-09-01T07:13:13;17.40;99.90
24049;DHT22;12250;50.956;4.746;2022-09-01T07:15:47;17.70;99.90
24049;DHT22;12250;50.956;4.746;2022-09-01T07:18:19;18.00;99.90
24049;DHT22;12250;50.956;4.746;2022-09-01T07:20:50;18.10;99.90
24049;DHT22;12250;50.956;4.746;2022-09-01T07:23:18;18.40;99.90
24049;DHT22;12250;50.956;4.746;2022-09-01T07:25:47;18.50;99.90
24049;DHT22;12250;50.956;4.746;2022-09-01T07:28:15;18.60;99.90
24049;DHT22;12250;50.956;4.746;2022-09-01T07:30:51;18.70;99.90
24049;DHT22;12250;50.956;4.746;2022-09-01T07:33:19;18.80;99.90
24049;DHT22;12250;50.956;4.746;2022-09-01T07:35:50;18.90;99.70
24049;DHT22;12250;50.956;4.746;2022-09-01T07:38:21;19.10;99.70
24049;DHT22;12250;50.956;4.746;2022-09-01T07:40:46;19.20;99.50
24049;DHT22;12250;50.956;4.746;2022-09-01T07:43:18;19.50;99.20
24049;DHT22;12250;50.956;4.746;2022-09-01T07:45:48;19.90;98.40
24049;DHT22;12250;50.956;4.746;2022-09-01T07:48:17;20.70;97.40
24049;DHT22;12250;50.956;4.746;2022-09-01T07:50:46;21.20;96.50
24049;DHT22;12250;50.956;4.746;2022-09-01T07:53:17;22.00;95.40
24049;DHT22;12250;50.956;4.746;2022-09-01T07:55:44;22.50;93.80
24049;DHT22;12250;50.956;4.746;2022-09-01T07:58:12;22.90;92.90
24049;DHT22;12250;50.956;4.746;2022-09-01T08:00:41;23.20;92.00
24049;DHT22;12250;50.956;4.746;2022-09-01T08:03:16;23.30;91.40
24049;DHT22;12250;50.956;4.746;2022-09-01T08:05:42;24.30;90.00
24049;DHT22;12250;50.956;4.746;2022-09-01T08:08:09;27.00;78.80
24049;DHT22;12250;50.956;4.746;2022-09-01T08:10:38;29.70;66.20
24049;DHT22;12250;50.956;4.746;2022-09-01T08:13:05;31.60;57.20
24049;DHT22;12250;50.956;4.746;2022-09-01T08:15:31;32.90;51.70
24049;DHT22;12250;50.956;4.746;2022-09-01T08:17:56;34.50;48.80
24049;DHT22;12250;50.956;4.746;2022-09-01T08:20:22;35.70;45.10
24049;DHT22;12250;50.956;4.746;2022-09-01T08:22:48;37.00;43.10
24049;DHT22;12250;50.956;4.746;2022-09-01T08:25:14;37.90;39.50
24049;DHT22;12250;50.956;4.746;2022-09-01T08:27:40;38.30;37.80
24049;DHT22;12250;50.956;4.746;2022-09-01T08:30:09;38.70;37.70
24049;DHT22;12250;50.956;4.746;2022-09-01T08:32:36;39.50;35.70
24049;DHT22;12250;50.956;4.746;2022-09-01T08:35:03;40.50;34.50
24049;DHT22;12250;50.956;4.746;2022-09-01T08:37:31;41.00;32.60
24049;DHT22;12250;50.956;4.746;2022-09-01T08:39:57;41.40;32.30
24049;DHT22;12250;50.956;4.746;2022-09-01T08:50:40;43.10;29.20
24049;DHT22;12250;50.956;4.746;2022-09-01T08:53:24;43.10;28.70
24049;DHT22;12250;50.956;4.746;2022-09-01T08:55:55;43.10;28.50
24049;DHT22;12250;50.956;4.746;2022-09-01T08:58:21;42.90;28.20
24049;DHT22;12250;50.956;4.746;2022-09-01T09:00:55;42.00;29.00
24049;DHT22;12250;50.956;4.746;2022-09-01T09:04:03;42.00;29.10
24049;DHT22;12250;50.956;4.746;2022-09-01T09:07:01;42.50;28.40
24049;DHT22;12250;50.956;4.746;2022-09-01T09:09:46;42.20;28.70
24049;DHT22;12250;50.956;4.746;2022-09-01T09:12:26;41.80;28.40
24049;DHT22;12250;50.956;4.746;2022-09-01T09:15:16;41.90;29.20
24049;DHT22;12250;50.956;4.746;2022-09-01T09:17:48;41.90;28.80
24049;DHT22;12250;50.956;4.746;2022-09-01T09:20:17;42.30;28.20
24049;DHT22;12250;50.956;4.746;2022-09-01T09:22:44;42.80;27.70
24049;DHT22;12250;50.956;4.746;2022-09-01T09:25:15;43.10;27.40
24049;DHT22;12250;50.956;4.746;2022-09-01T09:27:44;43.30;26.70
24049;DHT22;12250;50.956;4.746;2022-09-01T09:30:27;43.20;26.80
24049;DHT22;12250;50.956;4.746;2022-09-01T09:33:05;43.10;26.40
24049;DHT22;12250;50.956;4.746;2022-09-01T09:41:07;42.40;26.80
24049;DHT22;12250;50.956;4.746;2022-09-01T09:43:36;42.20;25.90
24049;DHT22;12250;50.956;4.746;2022-09-01T09:46:37;42.20;26.60
24049;DHT22;12250;50.956;4.746;2022-09-01T09:51:43;41.40;26.60
24049;DHT22;12250;50.956;4.746;2022-09-01T09:54:58;41.20;27.10
24049;DHT22;12250;50.956;4.746;2022-09-01T09:57:25;40.70;26.70
24049;DHT22;12250;50.956;4.746;2022-09-01T10:02:32;41.40;26.50
24049;DHT22;12250;50.956;4.746;2022-09-01T10:05:00;41.70;25.80
24049;DHT22;12250;50.956;4.746;2022-09-01T10:07:35;41.70;25.50
24049;DHT22;12250;50.956;4.746;2022-09-01T10:10:05;42.30;25.30
24049;DHT22;12250;50.956;4.746;2022-09-01T10:12:31;43.10;24.90
24049;DHT22;12250;50.956;4.746;2022-09-01T10:15:07;43.40;24.40
24049;DHT22;12250;50.956;4.746;2022-09-01T10:17:41;43.60;23.70
24049;DHT22;12250;50.956;4.746;2022-09-01T10:20:10;43.40;23.70
24049;DHT22;12250;50.956;4.746;2022-09-01T10:22:38;42.90;24.20
24049;DHT22;12250;50.956;4.746;2022-09-01T10:25:07;42.60;24.00
24049;DHT22;12250;50.956;4.746;2022-09-01T10:27:36;41.40;24.80
24049;DHT22;12250;50.956;4.746;2022-09-01T10:32:56;41.70;25.40
24049;DHT22;12250;50.956;4.746;2022-09-01T10:35:29;42.10;25.80
24049;DHT22;12250;50.956;4.746;2022-09-01T10:37:57;42.60;24.80
24049;DHT22;12250;50.956;4.746;2022-09-01T10:42:55;43.00;24.20
24049;DHT22;12250;50.956;4.746;2022-09-01T10:45:35;43.40;24.60
24049;DHT22;12250;50.956;4.746;2022-09-01T10:50:49;43.30;23.20
24049;DHT22;12250;50.956;4.746;2022-09-01T10:53:42;43.70;24.30
24049;DHT22;12250;50.956;4.746;2022-09-01T10:56:22;43.40;23.70
24049;DHT22;12250;50.956;4.746;2022-09-01T11:05:08;42.80;24.70
24049;DHT22;12250;50.956;4.746;2022-09-01T11:06:57;42.40;23.50
24049;DHT22;12250;50.956;4.746;2022-09-01T11:09:46;41.50;24.50
24049;DHT22;12250;50.956;4.746;2022-09-01T11:14:58;39.70;25.90
24049;DHT22;12250;50.956;4.746;2022-09-01T11:20:09;38.00;28.30
24049;DHT22;12250;50.956;4.746;2022-09-01T11:22:44;37.80;28.60
24049;DHT22;12250;50.956;4.746;2022-09-01T11:25:38;37.80;28.10
24049;DHT22;12250;50.956;4.746;2022-09-01T11:33:47;34.00;31.60
24049;DHT22;12250;50.956;4.746;2022-09-01T11:36:23;33.00;33.20
24049;DHT22;12250;50.956;4.746;2022-09-01T11:44:24;29.90;38.10
24049;DHT22;12250;50.956;4.746;2022-09-01T11:46:53;29.40;39.50
24049;DHT22;12250;50.956;4.746;2022-09-01T11:52:18;28.60;41.40
24049;DHT22;12250;50.956;4.746;2022-09-01T11:54:44;28.40;42.10
24049;DHT22;12250;50.956;4.746;2022-09-01T11:57:26;28.20;43.30
24049;DHT22;12250;50.956;4.746;2022-09-01T11:59:53;28.30;42.50
24049;DHT22;12250;50.956;4.746;2022-09-01T12:02:32;28.40;42.80
24049;DHT22;12250;50.956;4.746;2022-09-01T12:05:02;28.40;42.00
24049;DHT22;12250;50.956;4.746;2022-09-01T12:07:46;28.50;44.00
24049;DHT22;12250;50.956;4.746;2022-09-01T12:10:19;28.60;42.00
24049;DHT22;12250;50.956;4.746;2022-09-01T12:12:46;28.40;41.50
24049;DHT22;12250;50.956;4.746;2022-09-01T12:15:23;28.20;41.80
24049;DHT22;12250;50.956;4.746;2022-09-01T12:17:50;27.80;42.30
24049;DHT22;12250;50.956;4.746;2022-09-01T12:20:30;27.50;43.80
24049;DHT22;12250;50.956;4.746;2022-09-01T12:22:58;27.40;44.50
24049;DHT22;12250;50.956;4.746;2022-09-01T12:25:27;27.20;44.10
24049;DHT22;12250;50.956;4.746;2022-09-01T12:27:53;27.10;43.90
24049;DHT22;12250;50.956;4.746;2022-09-01T12:30:20;27.10;44.50
24049;DHT22;12250;50.956;4.746;2022-09-01T12:32:47;27.50;44.80
24049;DHT22;12250;50.956;4.746;2022-09-01T12:35:20;27.90;43.40
24049;DHT22;12250;50.956;4.746;2022-09-01T12:37:46;28.20;42.40
24049;DHT22;12250;50.956;4.746;2022-09-01T12:40:32;28.30;42.30
24049;DHT22;12250;50.956;4.746;2022-09-01T12:42:59;28.10;42.10
24049;DHT22;12250;50.956;4.746;2022-09-01T12:45:45;28.20;42.70
24049;DHT22;12250;50.956;4.746;2022-09-01T12:50:59;28.70;41.60
24049;DHT22;12250;50.956;4.746;2022-09-01T12:53:27;28.80;41.80
24049;DHT22;12250;50.956;4.746;2022-09-01T12:55:58;28.90;41.60
24049;DHT22;12250;50.956;4.746;2022-09-01T12:58:25;29.10;41.00
24049;DHT22;12250;50.956;4.746;2022-09-01T13:01:00;29.40;40.30
24049;DHT22;12250;50.956;4.746;2022-09-01T13:03:26;29.80;40.10
24049;DHT22;12250;50.956;4.746;2022-09-01T13:05:59;29.90;39.20
24049;DHT22;12250;50.956;4.746;2022-09-01T13:08:27;30.10;39.40
24049;DHT22;12250;50.956;4.746;2022-09-01T13:11:19;30.30;38.70
24049;DHT22;12250;50.956;4.746;2022-09-01T13:13:45;30.50;38.40
24049;DHT22;12250;50.956;4.746;2022-09-01T13:16:11;30.40;38.60
24049;DHT22;12250;50.956;4.746;2022-09-01T13:18:39;30.10;38.20
24049;DHT22;12250;50.956;4.746;2022-09-01T13:21:06;29.80;39.10
24049;DHT22;12250;50.956;4.746;2022-09-01T13:23:32;29.50;38.40
24049;DHT22;12250;50.956;4.746;2022-09-01T13:25:58;29.30;39.10
24049;DHT22;12250;50.956;4.746;2022-09-01T13:28:24;29.40;38.60
24049;DHT22;12250;50.956;4.746;2022-09-01T13:30:59;29.40;40.10
24049;DHT22;12250;50.956;4.746;2022-09-01T13:33:26;29.50;38.70
24049;DHT22;12250;50.956;4.746;2022-09-01T13:35:52;29.40;39.40
24049;DHT22;12250;50.956;4.746;2022-09-01T13:38:18;29.30;38.60
24049;DHT22;12250;50.956;4.746;2022-09-01T13:40:45;29.30;38.70
24049;DHT22;12250;50.956;4.746;2022-09-01T13:43:15;29.30;38.80
24049;DHT22;12250;50.956;4.746;2022-09-01T13:45:41;29.20;37.50
24049;DHT22;12250;50.956;4.746;2022-09-01T13:48:07;28.90;39.00
24049;DHT22;12250;50.956;4.746;2022-09-01T13:50:34;28.70;39.10
24049;DHT22;12250;50.956;4.746;2022-09-01T13:53:00;28.60;39.70
24049;DHT22;12250;50.956;4.746;2022-09-01T13:55:28;28.50;39.80
24049;DHT22;12250;50.956;4.746;2022-09-01T13:57:55;28.60;39.50
24049;DHT22;12250;50.956;4.746;2022-09-01T14:00:24;28.50;38.60
24049;DHT22;12250;50.956;4.746;2022-09-01T14:02:53;28.30;38.60
24049;DHT22;12250;50.956;4.746;2022-09-01T14:05:24;28.30;39.10
24049;DHT22;12250;50.956;4.746;2022-09-01T14:07:51;28.50;38.90
24049;DHT22;12250;50.956;4.746;2022-09-01T14:10:18;28.50;38.40
24049;DHT22;12250;50.956;4.746;2022-09-01T14:12:45;28.60;38.70
24049;DHT22;12250;50.956;4.746;2022-09-01T14:15:12;28.80;38.40
24049;DHT22;12250;50.956;4.746;2022-09-01T14:17:38;28.70;38.80
24049;DHT22;12250;50.956;4.746;2022-09-01T14:20:07;28.50;38.30
24049;DHT22;12250;50.956;4.746;2022-09-01T14:22:33;28.50;38.50
24049;DHT22;12250;50.956;4.746;2022-09-01T14:24:59;28.60;39.10
24049;DHT22;12250;50.956;4.746;2022-09-01T14:27:25;28.60;39.50
24049;DHT22;12250;50.956;4.746;2022-09-01T14:29:51;28.50;38.20
24049;DHT22;12250;50.956;4.746;2022-09-01T14:32:21;28.30;38.30
24049;DHT22;12250;50.956;4.746;2022-09-01T14:34:55;28.20;38.10
24049;DHT22;12250;50.956;4.746;2022-09-01T14:37:21;28.10;39.10
24049;DHT22;12250;50.956;4.746;2022-09-01T14:39:55;28.10;39.40
24049;DHT22;12250;50.956;4.746;2022-09-01T14:42:22;28.10;38.40
24049;DHT22;12250;50.956;4.746;2022-09-01T14:44:50;28.10;38.20
24049;DHT22;12250;50.956;4.746;2022-09-01T14:47:17;28.10;38.50
24049;DHT22;12250;50.956;4.746;2022-09-01T14:49:43;28.10;37.40
24049;DHT22;12250;50.956;4.746;2022-09-01T14:52:09;28.10;37.90
24049;DHT22;12250;50.956;4.746;2022-09-01T14:54:36;28.10;37.10
24049;DHT22;12250;50.956;4.746;2022-09-01T14:57:03;28.00;37.30
24049;DHT22;12250;50.956;4.746;2022-09-01T14:59:29;28.00;38.70
24049;DHT22;12250;50.956;4.746;2022-09-01T15:01:55;28.20;38.60
24049;DHT22;12250;50.956;4.746;2022-09-01T15:04:21;28.10;38.10
24049;DHT22;12250;50.956;4.746;2022-09-01T15:06:46;28.00;38.00
24049;DHT22;12250;50.956;4.746;2022-09-01T15:09:12;27.90;38.50
24049;DHT22;12250;50.956;4.746;2022-09-01T15:11:40;27.80;38.90
24049;DHT22;12250;50.956;4.746;2022-09-01T15:14:06;27.80;38.40
24049;DHT22;12250;50.956;4.746;2022-09-01T15:16:34;27.90;38.60
24049;DHT22;12250;50.956;4.746;2022-09-01T15:19:05;28.10;38.10
24049;DHT22;12250;50.956;4.746;2022-09-01T15:21:31;28.00;38.10
24049;DHT22;12250;50.956;4.746;2022-09-01T15:24:02;28.00;38.10
24049;DHT22;12250;50.956;4.746;2022-09-01T15:26:28;27.90;38.30
24049;DHT22;12250;50.956;4.746;2022-09-01T15:28:54;27.60;38.90
24049;DHT22;12250;50.956;4.746;2022-09-01T15:31:21;27.60;39.20
24049;DHT22;12250;50.956;4.746;2022-09-01T15:33:49;27.60;40.40
24049;DHT22;12250;50.956;4.746;2022-09-01T15:36:20;27.70;39.70
24049;DHT22;12250;50.956;4.746;2022-09-01T15:38:45;27.80;40.00
24049;DHT22;12250;50.956;4.746;2022-09-01T15:41:30;28.00;40.40
24049;DHT22;12250;50.956;4.746;2022-09-01T15:43:57;28.00;38.10
24049;DHT22;12250;50.956;4.746;2022-09-01T15:46:24;27.80;38.50
24049;DHT22;12250;50.956;4.746;2022-09-01T15:48:58;27.90;38.30
24049;DHT22;12250;50.956;4.746;2022-09-01T15:51:38;28.00;38.50
24049;DHT22;12250;50.956;4.746;2022-09-01T15:56:36;27.90;38.70
24049;DHT22;12250;50.956;4.746;2022-09-01T15:59:06;27.80;39.20
24049;DHT22;12250;50.956;4.746;2022-09-01T16:01:35;27.90;40.10
24049;DHT22;12250;50.956;4.746;2022-09-01T16:04:01;27.90;39.20
24049;DHT22;12250;50.956;4.746;2022-09-01T16:06:28;27.80;39.80
24049;DHT22;12250;50.956;4.746;2022-09-01T16:08:54;27.70;39.00
24049;DHT22;12250;50.956;4.746;2022-09-01T16:11:21;27.60;40.10
24049;DHT22;12250;50.956;4.746;2022-09-01T16:13:48;27.50;40.30
24049;DHT22;12250;50.956;4.746;2022-09-01T16:22:30;27.30;39.40
24049;DHT22;12250;50.956;4.746;2022-09-01T16:25:00;27.30;39.90
24049;DHT22;12250;50.956;4.746;2022-09-01T16:27:34;27.20;39.80
24049;DHT22;12250;50.956;4.746;2022-09-01T16:30:18;27.10;40.50
24049;DHT22;12250;50.956;4.746;2022-09-01T16:32:47;27.00;40.60
24049;DHT22;12250;50.956;4.746;2022-09-01T16:35:14;26.90;40.40
24049;DHT22;12250;50.956;4.746;2022-09-01T16:38:26;26.80;41.00
24049;DHT22;12250;50.956;4.746;2022-09-01T16:46:40;26.30;41.30
24049;DHT22;12250;50.956;4.746;2022-09-01T16:52:08;26.30;42.50
24049;DHT22;12250;50.956;4.746;2022-09-01T16:57:45;26.20;42.40
24049;DHT22;12250;50.956;4.746;2022-09-01T17:00:17;26.20;42.10
24049;DHT22;12250;50.956;4.746;2022-09-01T17:02:57;26.10;43.00